Jean Philippe Monclin

Jean Philippe Monclin

Statistiques 2026

  • Courses courues : 76
  • Nb de victoires : 17
  • Nb de places : 35
  • Écart gagnant : 2
  • Réussite à la gagne : 22%
  • Réussite à la place : 46%
Musique : 0a 2a 1a 0a 4a 0a 4a 1a 6a Da 3a Da 3a 1a 1a 3a 5a 2a
DateRangCatégorieAlloc.Dist.HippodromeChevalRed. KmSpé.
09/05/21 D Trot 100 000€ 2 850m Vincennes Gainsborough Attelé lire

A été sanctionné à la sortie du premier tournant.

09/05/21 0 Trot 58 000€ 2 700m Vincennes Ciroco d'Auvillier Attelé lire

Très vite à la pointe du combat, a nettement faibli pour finir.

09/05/21 D Trot 37 000€ 2 875m Vincennes Gims du Plessis Attelé
10/05/21 1 Trot 18 000€ 2 450m Caen Instagram 1'17"0 Attelé
10/05/21 D Trot 18 000€ 2 450m Caen Hede Wood Attelé
10/05/21 3 Trot 18 000€ 2 450m Caen Henzo de Moutiers 1'14"3 Attelé
11/05/21 1 Trot 38 000€ 2 100m Vincennes Hymne du Gers 1'12"6 Attelé
14/05/21 3 Trot 14 000€ 2 850m Laval Idden Fortune 1'18"8 Attelé
14/05/21 1 Trot 26 000€ 2 850m Laval O'sunday 1'14"3 Attelé
14/05/21 7 Trot 17 000€ 2 850m Laval Gwendoline 1'16"2 Attelé
14/05/21 1 Trot 14 000€ 2 850m Laval Hadiastart 1'16"3 Attelé
19/05/21 6 Trot 26 000€ 2 200m Caen Gaia d'Occagnes 1'12"8 Attelé lire

Tout de suite en bonne position, a progressivement faibli pour finir.

21/05/21 7 Trot 51 000€ 2 700m Vincennes Caballo d'Aure 1'13"8 Attelé lire

N'a été qu'un simple figurant au sein du peloton.

21/05/21 5 Trot 51 000€ 2 700m Vincennes Cadence Del Fretta 1'15"2 Attelé lire

Après avoir figuré au sein du peloton, a conclu honorablement.

21/05/21 1 Trot 38 000€ 2 175m Vincennes Ideefollebuissonay 1'14"2 Attelé
26/05/21 1 Trot 19 000€ 2 800m Cholet Galia Sotho 1'15"3 Attelé
26/05/21 3 Trot 26 000€ 2 800m Cholet Espoir Rose 1'15"4 Attelé lire

Après avoir attendu au sein du peloton, a conclu de bonne façon.

26/05/21 D Trot 23 000€ 2 800m Cholet Eleven Shapter Attelé
26/05/21 D Trot 15 000€ 2 800m Cholet Indien Pass Attelé
28/05/21 D Trot 18 000€ 2 850m Laval High Energy Attelé
28/05/21 2 Trot 18 000€ 2 850m Laval Highlander Jayf 1'14"3 Attelé
28/05/21 8 Trot 20 000€ 2 850m Laval Gendreenne 1'17"1 Attelé
28/05/21 4 Trot 23 000€ 2 850m Laval Fabuleuse Fligny 1'15"2 Attelé
28/05/21 D Trot 31 000€ 2 850m Laval Dream To Gis Attelé
29/05/21 8 Trot 38 000€ 2 150m Enghien Soisy Ishtar Font 1'14"7 Attelé
29/05/21 D Trot 38 000€ 2 150m Enghien Soisy Isla Attelé
29/05/21 0 Trot 67 000€ 2 150m Enghien Soisy Belle Emotion Attelé lire

N'a joué aucun rôle utile.

29/05/21 1 Trot 37 000€ 2 900m Enghien Soisy Fly Speed 1'13"1 Attelé lire

Après avoir attendu, a progressé dans la ligne opposée, se montrant le plus fort près du but.

30/05/21 1 Trot 11 000€ 2 475m Niort Ines Star Attelé
30/05/21 6 Trot 12 000€ 2 475m Niort Harry du Bocage TNC Attelé
30/05/21 1 Trot 12 000€ 2 475m Niort Hapollonia Attelé
30/05/21 2 Trot 16 000€ 2 475m Niort Guenole du Vivier Attelé
30/05/21 2 Trot 24 000€ 3 575m Niort Fronsac Madrik Attelé
31/05/21 D Trot 17 000€ 2 200m Vichy Ilarita Mag Attelé
31/05/21 D Trot 19 000€ 2 150m Vichy Gandy des Tours Attelé
31/05/21 7 Trot 29 000€ 2 800m Vichy Dorus Well 1'15"9 Attelé
31/05/21 8 Trot 17 000€ 2 200m Vichy Iciano 1'21"0 Attelé
01/06/21 5 Trot 18 000€ 2 850m Vincennes Eagle de Vauville 1'15"1 Attelé
01/06/21 D Trot 37 000€ 2 700m Vincennes Glycine du Mont Attelé lire

Après avoir attendu, s'est désunie à la sortie du tournant final alors qu'elle progressait.

05/06/21 D Trot 20 000€ 2 800m Pontchateau Isabella du Parc Attelé
05/06/21 2 Trot 17 000€ 2 800m Pontchateau Hasparren 1'14"7 Attelé
05/06/21 8 Trot 19 000€ 2 800m Pontchateau Graine d'Urzy 1'16"0 Attelé
05/06/21 4 Trot 26 000€ 2 800m Pontchateau Fiona de Coquerie 1'16"3 Attelé
05/06/21 3 Trot 22 000€ 2 800m Pontchateau Funny d'Aval 1'15"1 Attelé lire

Après avoir figuré, a bien tenu sa partie jusqu'au bout.

07/06/21 7 Mixte 13 000€ 2 825m Sable Sur Sarthe Izora Barzat 1'22"6 Attelé
07/06/21 1 Mixte 13 000€ 2 825m Sable Sur Sarthe Iris Lire 1'23"2 Attelé
07/06/21 4 Mixte 18 000€ 2 850m Sable Sur Sarthe Fee de Lunojo 1'19"4 Attelé
06/06/21 8 Trot 13 000€ 2 600m La Roche Posay Idee Smart Attelé
06/06/21 D Trot 13 000€ 2 625m La Roche Posay Hercule de l'Oison Attelé
06/06/21 5 Trot 45 000€ 3 150m La Roche Posay Fawley Buissonay Attelé